sensor_id;sensor_type;location;lat;lon;timestamp;pressure;altitude;pressure_sealevel;temperature;humidity
77450;BME280;66536;53.150;18.172;2023-12-04T00:01:46;101797.47;;;-1.83;93.53
77450;BME280;66536;53.150;18.172;2023-12-04T00:04:14;101799.88;;;-1.83;93.46
77450;BME280;66536;53.150;18.172;2023-12-04T00:06:41;101798.29;;;-1.82;93.60
77450;BME280;66536;53.150;18.172;2023-12-04T00:09:08;101799.55;;;-1.81;93.63
77450;BME280;66536;53.150;18.172;2023-12-04T00:11:35;101796.63;;;-1.80;93.69
77450;BME280;66536;53.150;18.172;2023-12-04T00:14:02;101803.83;;;-1.79;93.64
77450;BME280;66536;53.150;18.172;2023-12-04T00:16:29;101808.74;;;-1.79;93.58
77450;BME280;66536;53.150;18.172;2023-12-04T00:18:55;101808.75;;;-1.79;93.59
77450;BME280;66536;53.150;18.172;2023-12-04T00:21:22;101806.94;;;-1.83;93.54
77450;BME280;66536;53.150;18.172;2023-12-04T00:23:49;101810.86;;;-1.83;93.64
77450;BME280;66536;53.150;18.172;2023-12-04T00:26:15;101810.27;;;-1.82;93.88
77450;BME280;66536;53.150;18.172;2023-12-04T00:28:42;101817.06;;;-1.80;93.76
77450;BME280;66536;53.150;18.172;2023-12-04T00:31:09;101812.30;;;-1.80;93.77
77450;BME280;66536;53.150;18.172;2023-12-04T00:33:37;101812.92;;;-1.79;93.79
77450;BME280;66536;53.150;18.172;2023-12-04T00:36:05;101812.25;;;-1.79;93.73
77450;BME280;66536;53.150;18.172;2023-12-04T00:38:32;101812.63;;;-1.79;93.85
77450;BME280;66536;53.150;18.172;2023-12-04T00:40:58;101812.50;;;-1.80;93.90
77450;BME280;66536;53.150;18.172;2023-12-04T00:43:25;101815.25;;;-1.78;93.95
77450;BME280;66536;53.150;18.172;2023-12-04T00:45:52;101815.09;;;-1.78;93.96
77450;BME280;66536;53.150;18.172;2023-12-04T00:48:18;101817.67;;;-1.79;93.86
77450;BME280;66536;53.150;18.172;2023-12-04T00:50:45;101815.08;;;-1.81;93.98
77450;BME280;66536;53.150;18.172;2023-12-04T00:53:12;101819.89;;;-1.79;94.15
77450;BME280;66536;53.150;18.172;2023-12-04T00:55:39;101820.73;;;-1.79;94.15
77450;BME280;66536;53.150;18.172;2023-12-04T00:58:05;101818.25;;;-1.80;94.14
77450;BME280;66536;53.150;18.172;2023-12-04T01:00:32;101821.40;;;-1.79;94.24
77450;BME280;66536;53.150;18.172;2023-12-04T01:02:59;101822.06;;;-1.79;94.18
77450;BME280;66536;53.150;18.172;2023-12-04T01:05:26;101819.66;;;-1.78;94.15
77450;BME280;66536;53.150;18.172;2023-12-04T01:07:52;101823.86;;;-1.75;94.19
77450;BME280;66536;53.150;18.172;2023-12-04T01:10:19;101826.45;;;-1.71;94.24
77450;BME280;66536;53.150;18.172;2023-12-04T01:12:46;101824.27;;;-1.69;94.23
77450;BME280;66536;53.150;18.172;2023-12-04T01:15:13;101826.34;;;-1.66;94.19
77450;BME280;66536;53.150;18.172;2023-12-04T01:17:40;101828.46;;;-1.65;93.99
77450;BME280;66536;53.150;18.172;2023-12-04T01:20:07;101823.48;;;-1.64;94.07
77450;BME280;66536;53.150;18.172;2023-12-04T01:22:34;101824.56;;;-1.63;94.11
77450;BME280;66536;53.150;18.172;2023-12-04T01:25:01;101828.22;;;-1.62;94.16
77450;BME280;66536;53.150;18.172;2023-12-04T01:27:29;101831.38;;;-1.61;94.15
77450;BME280;66536;53.150;18.172;2023-12-04T01:29:56;101830.23;;;-1.62;94.21
77450;BME280;66536;53.150;18.172;2023-12-04T01:32:23;101836.41;;;-1.63;94.11
77450;BME280;66536;53.150;18.172;2023-12-04T01:34:50;101831.31;;;-1.65;94.04
77450;BME280;66536;53.150;18.172;2023-12-04T01:37:16;101832.75;;;-1.66;93.95
77450;BME280;66536;53.150;18.172;2023-12-04T01:39:44;101830.20;;;-1.66;94.19
77450;BME280;66536;53.150;18.172;2023-12-04T01:42:10;101830.42;;;-1.67;94.07
77450;BME280;66536;53.150;18.172;2023-12-04T01:44:37;101823.54;;;-1.68;94.13
77450;BME280;66536;53.150;18.172;2023-12-04T01:47:04;101834.73;;;-1.68;94.17
77450;BME280;66536;53.150;18.172;2023-12-04T01:49:31;101833.37;;;-1.68;94.20
77450;BME280;66536;53.150;18.172;2023-12-04T01:51:58;101832.77;;;-1.66;94.11
77450;BME280;66536;53.150;18.172;2023-12-04T01:54:25;101836.25;;;-1.65;94.24
77450;BME280;66536;53.150;18.172;2023-12-04T01:56:52;101832.13;;;-1.65;94.28
77450;BME280;66536;53.150;18.172;2023-12-04T01:59:19;101834.70;;;-1.65;94.10
77450;BME280;66536;53.150;18.172;2023-12-04T02:01:46;101835.04;;;-1.65;94.09
77450;BME280;66536;53.150;18.172;2023-12-04T02:04:14;101831.23;;;-1.64;94.21
77450;BME280;66536;53.150;18.172;2023-12-04T02:06:42;101831.38;;;-1.63;94.21
77450;BME280;66536;53.150;18.172;2023-12-04T02:09:09;101834.89;;;-1.63;94.11
77450;BME280;66536;53.150;18.172;2023-12-04T02:11:39;101838.82;;;-1.63;93.99
77450;BME280;66536;53.150;18.172;2023-12-04T02:14:07;101845.65;;;-1.64;93.98
77450;BME280;66536;53.150;18.172;2023-12-04T02:16:38;101852.79;;;-1.65;94.00
77450;BME280;66536;53.150;18.172;2023-12-04T02:19:07;101854.45;;;-1.64;94.12
77450;BME280;66536;53.150;18.172;2023-12-04T02:21:35;101852.78;;;-1.65;94.08
77450;BME280;66536;53.150;18.172;2023-12-04T02:24:02;101852.80;;;-1.65;94.08
77450;BME280;66536;53.150;18.172;2023-12-04T02:26:46;101847.85;;;-1.64;94.14
77450;BME280;66536;53.150;18.172;2023-12-04T02:29:16;101836.69;;;-1.65;94.07
77450;BME280;66536;53.150;18.172;2023-12-04T02:31:50;101840.57;;;-1.64;93.99
77450;BME280;66536;53.150;18.172;2023-12-04T02:34:18;101837.09;;;-1.63;94.07
77450;BME280;66536;53.150;18.172;2023-12-04T02:36:47;101837.29;;;-1.63;93.88
77450;BME280;66536;53.150;18.172;2023-12-04T02:39:14;101835.77;;;-1.63;93.90
77450;BME280;66536;53.150;18.172;2023-12-04T02:41:41;101835.48;;;-1.64;93.87
77450;BME280;66536;53.150;18.172;2023-12-04T02:44:08;101836.36;;;-1.65;93.86
77450;BME280;66536;53.150;18.172;2023-12-04T02:46:35;101842.17;;;-1.66;93.79
77450;BME280;66536;53.150;18.172;2023-12-04T02:49:01;101846.67;;;-1.65;93.97
77450;BME280;66536;53.150;18.172;2023-12-04T02:51:28;101842.36;;;-1.63;93.94
77450;BME280;66536;53.150;18.172;2023-12-04T02:53:55;101855.80;;;-1.62;93.93
77450;BME280;66536;53.150;18.172;2023-12-04T02:56:22;101854.41;;;-1.61;93.85
77450;BME280;66536;53.150;18.172;2023-12-04T02:58:49;101855.08;;;-1.61;93.85
77450;BME280;66536;53.150;18.172;2023-12-04T03:01:15;101855.71;;;-1.61;93.89
77450;BME280;66536;53.150;18.172;2023-12-04T03:03:42;101853.34;;;-1.60;93.80
77450;BME280;66536;53.150;18.172;2023-12-04T03:06:09;101855.34;;;-1.60;93.93
77450;BME280;66536;53.150;18.172;2023-12-04T03:08:36;101855.98;;;-1.59;93.88
77450;BME280;66536;53.150;18.172;2023-12-04T03:11:03;101856.95;;;-1.61;93.69
77450;BME280;66536;53.150;18.172;2023-12-04T03:13:31;101855.58;;;-1.64;93.67
77450;BME280;66536;53.150;18.172;2023-12-04T03:15:58;101859.48;;;-1.64;93.71
77450;BME280;66536;53.150;18.172;2023-12-04T03:18:24;101857.92;;;-1.66;93.73
77450;BME280;66536;53.150;18.172;2023-12-04T03:20:52;101857.35;;;-1.67;93.60
77450;BME280;66536;53.150;18.172;2023-12-04T03:23:18;101856.31;;;-1.70;93.60
77450;BME280;66536;53.150;18.172;2023-12-04T03:25:45;101861.44;;;-1.70;93.64
77450;BME280;66536;53.150;18.172;2023-12-04T03:28:12;101866.84;;;-1.70;93.76
77450;BME280;66536;53.150;18.172;2023-12-04T03:30:42;101865.17;;;-1.68;93.76
77450;BME280;66536;53.150;18.172;2023-12-04T03:33:11;101868.56;;;-1.68;93.51
77450;BME280;66536;53.150;18.172;2023-12-04T03:35:39;101868.30;;;-1.69;93.50
77450;BME280;66536;53.150;18.172;2023-12-04T03:38:06;101871.13;;;-1.69;93.63
77450;BME280;66536;53.150;18.172;2023-12-04T03:40:33;101869.10;;;-1.69;93.56
77450;BME280;66536;53.150;18.172;2023-12-04T03:43:01;101865.61;;;-1.67;93.78
77450;BME280;66536;53.150;18.172;2023-12-04T03:45:27;101869.48;;;-1.67;93.66
77450;BME280;66536;53.150;18.172;2023-12-04T03:47:54;101877.01;;;-1.68;93.46
77450;BME280;66536;53.150;18.172;2023-12-04T03:50:21;101872.99;;;-1.69;93.36
77450;BME280;66536;53.150;18.172;2023-12-04T03:52:48;101874.39;;;-1.69;93.38
77450;BME280;66536;53.150;18.172;2023-12-04T03:55:15;101872.26;;;-1.70;93.49
77450;BME280;66536;53.150;18.172;2023-12-04T03:57:42;101869.50;;;-1.70;93.55
77450;BME280;66536;53.150;18.172;2023-12-04T04:00:09;101869.11;;;-1.69;93.43
77450;BME280;66536;53.150;18.172;2023-12-04T04:02:42;101869.23;;;-1.68;93.55
77450;BME280;66536;53.150;18.172;2023-12-04T04:05:09;101866.89;;;-1.66;93.50
77450;BME280;66536;53.150;18.172;2023-12-04T04:07:36;101866.80;;;-1.67;93.21
77450;BME280;66536;53.150;18.172;2023-12-04T04:10:03;101865.84;;;-1.71;92.99
77450;BME280;66536;53.150;18.172;2023-12-04T04:12:31;101866.67;;;-1.73;93.08
77450;BME280;66536;53.150;18.172;2023-12-04T04:14:58;101861.45;;;-1.73;93.27
77450;BME280;66536;53.150;18.172;2023-12-04T04:17:25;101858.64;;;-1.72;93.19
77450;BME280;66536;53.150;18.172;2023-12-04T04:19:53;101864.11;;;-1.73;93.18
77450;BME280;66536;53.150;18.172;2023-12-04T04:22:21;101861.95;;;-1.73;93.19
77450;BME280;66536;53.150;18.172;2023-12-04T04:24:49;101867.85;;;-1.73;93.13
77450;BME280;66536;53.150;18.172;2023-12-04T04:27:15;101870.58;;;-1.73;93.22
77450;BME280;66536;53.150;18.172;2023-12-04T04:29:42;101871.77;;;-1.73;93.28
77450;BME280;66536;53.150;18.172;2023-12-04T04:32:09;101872.19;;;-1.72;93.36
77450;BME280;66536;53.150;18.172;2023-12-04T04:34:36;101875.93;;;-1.70;93.52
77450;BME280;66536;53.150;18.172;2023-12-04T04:37:02;101878.53;;;-1.68;93.43
77450;BME280;66536;53.150;18.172;2023-12-04T04:39:29;101875.39;;;-1.66;93.49
77450;BME280;66536;53.150;18.172;2023-12-04T04:41:56;101877.16;;;-1.65;93.34
77450;BME280;66536;53.150;18.172;2023-12-04T04:44:23;101876.61;;;-1.64;93.35
77450;BME280;66536;53.150;18.172;2023-12-04T04:46:49;101878.00;;;-1.63;93.37
77450;BME280;66536;53.150;18.172;2023-12-04T04:49:17;101870.89;;;-1.63;93.28
77450;BME280;66536;53.150;18.172;2023-12-04T04:51:43;101871.61;;;-1.60;93.31
77450;BME280;66536;53.150;18.172;2023-12-04T04:54:10;101876.44;;;-1.59;93.28
77450;BME280;66536;53.150;18.172;2023-12-04T04:56:37;101877.37;;;-1.58;93.24
77450;BME280;66536;53.150;18.172;2023-12-04T04:59:04;101881.45;;;-1.58;93.10
77450;BME280;66536;53.150;18.172;2023-12-04T05:01:31;101876.91;;;-1.59;92.93
77450;BME280;66536;53.150;18.172;2023-12-04T05:03:58;101874.67;;;-1.61;92.79
77450;BME280;66536;53.150;18.172;2023-12-04T05:06:25;101867.18;;;-1.65;92.68
77450;BME280;66536;53.150;18.172;2023-12-04T05:08:52;101873.29;;;-1.65;92.77
77450;BME280;66536;53.150;18.172;2023-12-04T05:11:18;101872.20;;;-1.67;92.69
77450;BME280;66536;53.150;18.172;2023-12-04T05:13:45;101878.32;;;-1.70;92.79
77450;BME280;66536;53.150;18.172;2023-12-04T05:16:12;101875.19;;;-1.71;92.87
77450;BME280;66536;53.150;18.172;2023-12-04T05:18:39;101872.19;;;-1.72;92.87
77450;BME280;66536;53.150;18.172;2023-12-04T05:21:09;101877.70;;;-1.73;92.86
77450;BME280;66536;53.150;18.172;2023-12-04T05:23:37;101878.36;;;-1.76;92.74
77450;BME280;66536;53.150;18.172;2023-12-04T05:26:05;101877.80;;;-1.78;92.92
77450;BME280;66536;53.150;18.172;2023-12-04T05:28:33;101882.90;;;-1.78;93.02
77450;BME280;66536;53.150;18.172;2023-12-04T05:31:01;101880.98;;;-1.80;92.82
77450;BME280;66536;53.150;18.172;2023-12-04T05:33:27;101880.41;;;-1.81;92.76
77450;BME280;66536;53.150;18.172;2023-12-04T05:35:54;101877.27;;;-1.83;92.76
77450;BME280;66536;53.150;18.172;2023-12-04T05:38:21;101875.11;;;-1.83;92.79
77450;BME280;66536;53.150;18.172;2023-12-04T05:40:48;101880.40;;;-1.84;92.76
77450;BME280;66536;53.150;18.172;2023-12-04T05:43:15;101875.73;;;-1.85;92.76
77450;BME280;66536;53.150;18.172;2023-12-04T05:45:42;101875.11;;;-1.86;92.72
77450;BME280;66536;53.150;18.172;2023-12-04T05:48:08;101874.83;;;-1.87;92.80
77450;BME280;66536;53.150;18.172;2023-12-04T05:50:35;101874.89;;;-1.87;92.67
77450;BME280;66536;53.150;18.172;2023-12-04T05:53:02;101870.02;;;-1.90;92.57
77450;BME280;66536;53.150;18.172;2023-12-04T05:55:29;101867.28;;;-1.93;92.75
77450;BME280;66536;53.150;18.172;2023-12-04T05:57:56;101868.63;;;-1.95;92.75
77450;BME280;66536;53.150;18.172;2023-12-04T06:00:23;101861.35;;;-1.98;92.77
77450;BME280;66536;53.150;18.172;2023-12-04T06:02:49;101868.18;;;-1.99;92.72
77450;BME280;66536;53.150;18.172;2023-12-04T06:05:16;101865.34;;;-2.02;92.59
77450;BME280;66536;53.150;18.172;2023-12-04T06:07:43;101865.59;;;-2.03;92.64
77450;BME280;66536;53.150;18.172;2023-12-04T06:10:10;101863.01;;;-2.06;92.53
77450;BME280;66536;53.150;18.172;2023-12-04T06:12:36;101863.31;;;-2.08;92.34
77450;BME280;66536;53.150;18.172;2023-12-04T06:15:04;101870.21;;;-2.10;92.36
77450;BME280;66536;53.150;18.172;2023-12-04T06:17:31;101868.41;;;-2.13;92.30
77450;BME280;66536;53.150;18.172;2023-12-04T06:19:57;101871.64;;;-2.16;92.26
77450;BME280;66536;53.150;18.172;2023-12-04T06:22:24;101869.76;;;-2.18;92.32
77450;BME280;66536;53.150;18.172;2023-12-04T06:24:52;101871.29;;;-2.19;92.42
77450;BME280;66536;53.150;18.172;2023-12-04T06:27:19;101872.70;;;-2.20;92.48
77450;BME280;66536;53.150;18.172;2023-12-04T06:29:48;101881.98;;;-2.19;92.44
77450;BME280;66536;53.150;18.172;2023-12-04T06:32:15;101887.71;;;-2.19;92.46
77450;BME280;66536;53.150;18.172;2023-12-04T06:34:42;101890.89;;;-2.21;92.25
77450;BME280;66536;53.150;18.172;2023-12-04T06:37:10;101884.95;;;-2.24;92.30
77450;BME280;66536;53.150;18.172;2023-12-04T06:39:38;101880.55;;;-2.24;92.42
77450;BME280;66536;53.150;18.172;2023-12-04T06:42:06;101876.39;;;-2.22;92.51
77450;BME280;66536;53.150;18.172;2023-12-04T06:44:34;101879.42;;;-2.19;92.61
77450;BME280;66536;53.150;18.172;2023-12-04T06:47:02;101885.72;;;-2.17;92.38
77450;BME280;66536;53.150;18.172;2023-12-04T06:49:31;101892.00;;;-2.18;92.19
77450;BME280;66536;53.150;18.172;2023-12-04T06:51:59;101887.03;;;-2.19;92.06
77450;BME280;66536;53.150;18.172;2023-12-04T06:54:27;101888.04;;;-2.19;91.99
77450;BME280;66536;53.150;18.172;2023-12-04T06:56:54;101883.83;;;-2.19;92.02
77450;BME280;66536;53.150;18.172;2023-12-04T06:59:21;101877.01;;;-2.18;92.05
77450;BME280;66536;53.150;18.172;2023-12-04T07:01:48;101876.29;;;-2.17;91.92
77450;BME280;66536;53.150;18.172;2023-12-04T07:04:15;101875.82;;;-2.18;91.74
77450;BME280;66536;53.150;18.172;2023-12-04T07:06:47;101871.20;;;-2.18;91.80
77450;BME280;66536;53.150;18.172;2023-12-04T07:09:15;101872.06;;;-2.15;91.84
77450;BME280;66536;53.150;18.172;2023-12-04T07:11:43;101872.53;;;-2.12;91.99
77450;BME280;66536;53.150;18.172;2023-12-04T07:14:11;101877.79;;;-2.09;91.84
77450;BME280;66536;53.150;18.172;2023-12-04T07:16:40;101877.52;;;-2.07;91.69
77450;BME280;66536;53.150;18.172;2023-12-04T07:19:08;101880.12;;;-2.03;91.76
77450;BME280;66536;53.150;18.172;2023-12-04T07:21:36;101878.64;;;-1.98;91.76
77450;BME280;66536;53.150;18.172;2023-12-04T07:24:04;101878.98;;;-1.93;91.86
77450;BME280;66536;53.150;18.172;2023-12-04T07:26:34;101888.43;;;-1.88;91.64
77450;BME280;66536;53.150;18.172;2023-12-04T07:29:03;20376.12;;;-102.77;17.48
77450;BME280;66536;53.150;18.172;2023-12-04T07:31:30;-1.00;;;-128.00;-1.00
77450;BME280;66536;53.150;18.172;2023-12-04T07:33:57;-1.00;;;-128.00;-1.00
77450;BME280;66536;53.150;18.172;2023-12-04T07:36:26;-1.00;;;-128.00;-1.00
77450;BME280;66536;53.150;18.172;2023-12-04T07:38:54;-1.00;;;-128.00;-1.00
77450;BME280;66536;53.150;18.172;2023-12-04T07:41:21;-1.00;;;-128.00;-1.00
77450;BME280;66536;53.150;18.172;2023-12-04T07:43:48;-1.00;;;-128.00;-1.00
77450;BME280;66536;53.150;18.172;2023-12-04T07:46:15;-1.00;;;-128.00;-1.00
77450;BME280;66536;53.150;18.172;2023-12-04T07:48:43;-1.00;;;-128.00;-1.00
77450;BME280;66536;53.150;18.172;2023-12-04T07:51:12;-1.00;;;-128.00;-1.00
77450;BME280;66536;53.150;18.172;2023-12-04T07:53:39;-1.00;;;-128.00;-1.00
77450;BME280;66536;53.150;18.172;2023-12-04T07:56:06;-1.00;;;-128.00;-1.00
77450;BME280;66536;53.150;18.172;2023-12-04T07:58:33;-1.00;;;-128.00;-1.00
77450;BME280;66536;53.150;18.172;2023-12-04T08:00:59;-1.00;;;-128.00;-1.00
77450;BME280;66536;53.150;18.172;2023-12-04T08:03:27;-1.00;;;-128.00;-1.00
77450;BME280;66536;53.150;18.172;2023-12-04T08:05:54;-1.00;;;-128.00;-1.00
77450;BME280;66536;53.150;18.172;2023-12-04T08:08:22;-1.00;;;-128.00;-1.00
77450;BME280;66536;53.150;18.172;2023-12-04T08:10:48;-1.00;;;-128.00;-1.00
77450;BME280;66536;53.150;18.172;2023-12-04T08:13:15;-1.00;;;-128.00;-1.00
77450;BME280;66536;53.150;18.172;2023-12-04T08:15:43;-1.00;;;-128.00;-1.00
77450;BME280;66536;53.150;18.172;2023-12-04T08:18:10;-1.00;;;-128.00;-1.00
77450;BME280;66536;53.150;18.172;2023-12-04T08:20:37;-1.00;;;-128.00;-1.00
77450;BME280;66536;53.150;18.172;2023-12-04T08:23:04;-1.00;;;-128.00;-1.00
77450;BME280;66536;53.150;18.172;2023-12-04T08:25:32;-1.00;;;-128.00;-1.00
77450;BME280;66536;53.150;18.172;2023-12-04T08:27:58;-1.00;;;-128.00;-1.00
77450;BME280;66536;53.150;18.172;2023-12-04T08:30:26;-1.00;;;-128.00;-1.00
77450;BME280;66536;53.150;18.172;2023-12-04T08:32:54;-1.00;;;-128.00;-1.00
77450;BME280;66536;53.150;18.172;2023-12-04T08:35:21;-1.00;;;-128.00;-1.00
77450;BME280;66536;53.150;18.172;2023-12-04T08:37:48;-1.00;;;-128.00;-1.00
77450;BME280;66536;53.150;18.172;2023-12-04T08:40:16;-1.00;;;-128.00;-1.00
77450;BME280;66536;53.150;18.172;2023-12-04T08:42:43;-1.00;;;-128.00;-1.00
77450;BME280;66536;53.150;18.172;2023-12-04T08:45:10;-1.00;;;-128.00;-1.00
77450;BME280;66536;53.150;18.172;2023-12-04T08:47:37;-1.00;;;-128.00;-1.00
77450;BME280;66536;53.150;18.172;2023-12-04T08:50:05;-1.00;;;-128.00;-1.00
77450;BME280;66536;53.150;18.172;2023-12-04T08:52:32;-1.00;;;-128.00;-1.00
77450;BME280;66536;53.150;18.172;2023-12-04T08:54:59;-1.00;;;-128.00;-1.00
77450;BME280;66536;53.150;18.172;2023-12-04T08:57:26;-1.00;;;-128.00;-1.00
77450;BME280;66536;53.150;18.172;2023-12-04T08:59:53;-1.00;;;-128.00;-1.00
77450;BME280;66536;53.150;18.172;2023-12-04T09:02:19;-1.00;;;-128.00;-1.00
77450;BME280;66536;53.150;18.172;2023-12-04T09:04:46;-1.00;;;-128.00;-1.00
77450;BME280;66536;53.150;18.172;2023-12-04T09:07:13;-1.00;;;-128.00;-1.00
77450;BME280;66536;53.150;18.172;2023-12-04T09:09:41;-1.00;;;-128.00;-1.00
77450;BME280;66536;53.150;18.172;2023-12-04T09:12:09;-1.00;;;-128.00;-1.00
77450;BME280;66536;53.150;18.172;2023-12-04T09:14:36;-1.00;;;-128.00;-1.00
77450;BME280;66536;53.150;18.172;2023-12-04T09:17:03;-1.00;;;-128.00;-1.00
77450;BME280;66536;53.150;18.172;2023-12-04T09:19:30;-1.00;;;-128.00;-1.00
77450;BME280;66536;53.150;18.172;2023-12-04T09:21:57;-1.00;;;-128.00;-1.00
77450;BME280;66536;53.150;18.172;2023-12-04T09:24:24;-1.00;;;-128.00;-1.00
77450;BME280;66536;53.150;18.172;2023-12-04T09:26:51;-1.00;;;-128.00;-1.00
77450;BME280;66536;53.150;18.172;2023-12-04T09:29:17;-1.00;;;-128.00;-1.00
77450;BME280;66536;53.150;18.172;2023-12-04T09:31:45;-1.00;;;-128.00;-1.00
77450;BME280;66536;53.150;18.172;2023-12-04T09:34:11;-1.00;;;-128.00;-1.00
77450;BME280;66536;53.150;18.172;2023-12-04T09:36:38;-1.00;;;-128.00;-1.00
77450;BME280;66536;53.150;18.172;2023-12-04T09:39:05;-1.00;;;-128.00;-1.00
77450;BME280;66536;53.150;18.172;2023-12-04T09:41:32;-1.00;;;-128.00;-1.00
77450;BME280;66536;53.150;18.172;2023-12-04T09:43:59;-1.00;;;-128.00;-1.00
77450;BME280;66536;53.150;18.172;2023-12-04T09:46:27;-1.00;;;-128.00;-1.00
77450;BME280;66536;53.150;18.172;2023-12-04T09:48:54;-1.00;;;-128.00;-1.00
77450;BME280;66536;53.150;18.172;2023-12-04T09:51:23;-1.00;;;-128.00;-1.00
77450;BME280;66536;53.150;18.172;2023-12-04T09:53:52;-1.00;;;-128.00;-1.00
77450;BME280;66536;53.150;18.172;2023-12-04T09:56:22;-1.00;;;-128.00;-1.00
77450;BME280;66536;53.150;18.172;2023-12-04T09:58:53;-1.00;;;-128.00;-1.00
77450;BME280;66536;53.150;18.172;2023-12-04T10:01:23;-1.00;;;-128.00;-1.00
77450;BME280;66536;53.150;18.172;2023-12-04T10:03:50;-1.00;;;-128.00;-1.00
77450;BME280;66536;53.150;18.172;2023-12-04T10:06:17;-1.00;;;-128.00;-1.00
77450;BME280;66536;53.150;18.172;2023-12-04T10:08:45;-1.00;;;-128.00;-1.00
77450;BME280;66536;53.150;18.172;2023-12-04T10:11:13;-1.00;;;-128.00;-1.00
77450;BME280;66536;53.150;18.172;2023-12-04T10:13:41;-1.00;;;-128.00;-1.00
77450;BME280;66536;53.150;18.172;2023-12-04T10:16:08;-1.00;;;-128.00;-1.00
77450;BME280;66536;53.150;18.172;2023-12-04T10:18:35;-1.00;;;-128.00;-1.00
77450;BME280;66536;53.150;18.172;2023-12-04T10:21:02;-1.00;;;-128.00;-1.00
77450;BME280;66536;53.150;18.172;2023-12-04T10:23:39;-1.00;;;-128.00;-1.00
77450;BME280;66536;53.150;18.172;2023-12-04T10:26:07;-1.00;;;-128.00;-1.00
77450;BME280;66536;53.150;18.172;2023-12-04T10:28:34;-1.00;;;-128.00;-1.00
77450;BME280;66536;53.150;18.172;2023-12-04T10:31:01;-1.00;;;-128.00;-1.00
77450;BME280;66536;53.150;18.172;2023-12-04T10:33:29;-1.00;;;-128.00;-1.00
77450;BME280;66536;53.150;18.172;2023-12-04T10:35:57;-1.00;;;-128.00;-1.00
77450;BME280;66536;53.150;18.172;2023-12-04T10:38:24;-1.00;;;-128.00;-1.00
77450;BME280;66536;53.150;18.172;2023-12-04T10:40:53;-1.00;;;-128.00;-1.00
77450;BME280;66536;53.150;18.172;2023-12-04T10:43:22;-1.00;;;-128.00;-1.00
77450;BME280;66536;53.150;18.172;2023-12-04T10:45:49;-1.00;;;-128.00;-1.00
77450;BME280;66536;53.150;18.172;2023-12-04T10:48:17;-1.00;;;-128.00;-1.00
77450;BME280;66536;53.150;18.172;2023-12-04T10:50:46;-1.00;;;-128.00;-1.00
77450;BME280;66536;53.150;18.172;2023-12-04T10:53:15;-1.00;;;-128.00;-1.00
77450;BME280;66536;53.150;18.172;2023-12-04T10:55:43;-1.00;;;-128.00;-1.00
77450;BME280;66536;53.150;18.172;2023-12-04T10:58:12;-1.00;;;-128.00;-1.00
77450;BME280;66536;53.150;18.172;2023-12-04T11:00:41;-1.00;;;-128.00;-1.00
77450;BME280;66536;53.150;18.172;2023-12-04T11:03:19;-1.00;;;-128.00;-1.00
77450;BME280;66536;53.150;18.172;2023-12-04T11:05:53;-1.00;;;-128.00;-1.00
77450;BME280;66536;53.150;18.172;2023-12-04T11:08:23;-1.00;;;-128.00;-1.00
77450;BME280;66536;53.150;18.172;2023-12-04T11:10:57;-1.00;;;-128.00;-1.00
77450;BME280;66536;53.150;18.172;2023-12-04T11:13:28;-1.00;;;-128.00;-1.00
77450;BME280;66536;53.150;18.172;2023-12-04T11:16:01;-1.00;;;-128.00;-1.00
77450;BME280;66536;53.150;18.172;2023-12-04T11:18:31;-1.00;;;-128.00;-1.00
77450;BME280;66536;53.150;18.172;2023-12-04T11:21:07;-1.00;;;-128.00;-1.00
77450;BME280;66536;53.150;18.172;2023-12-04T11:23:35;-1.00;;;-128.00;-1.00
77450;BME280;66536;53.150;18.172;2023-12-04T11:26:04;-1.00;;;-128.00;-1.00
77450;BME280;66536;53.150;18.172;2023-12-04T11:28:33;-1.00;;;-128.00;-1.00
77450;BME280;66536;53.150;18.172;2023-12-04T11:31:01;-1.00;;;-128.00;-1.00
77450;BME280;66536;53.150;18.172;2023-12-04T11:33:34;-1.00;;;-128.00;-1.00
77450;BME280;66536;53.150;18.172;2023-12-04T11:36:08;-1.00;;;-128.00;-1.00
77450;BME280;66536;53.150;18.172;2023-12-04T11:38:36;-1.00;;;-128.00;-1.00
77450;BME280;66536;53.150;18.172;2023-12-04T11:41:14;-1.00;;;-128.00;-1.00
77450;BME280;66536;53.150;18.172;2023-12-04T11:43:42;-1.00;;;-128.00;-1.00
77450;BME280;66536;53.150;18.172;2023-12-04T11:46:09;-1.00;;;-128.00;-1.00
77450;BME280;66536;53.150;18.172;2023-12-04T11:48:37;-1.00;;;-128.00;-1.00
77450;BME280;66536;53.150;18.172;2023-12-04T11:51:06;-1.00;;;-128.00;-1.00
77450;BME280;66536;53.150;18.172;2023-12-04T11:53:38;-1.00;;;-128.00;-1.00
77450;BME280;66536;53.150;18.172;2023-12-04T11:56:10;-1.00;;;-128.00;-1.00
77450;BME280;66536;53.150;18.172;2023-12-04T11:58:45;-1.00;;;-128.00;-1.00
77450;BME280;66536;53.150;18.172;2023-12-04T12:01:11;-1.00;;;-128.00;-1.00
77450;BME280;66536;53.150;18.172;2023-12-04T12:03:38;-1.00;;;-128.00;-1.00
77450;BME280;66536;53.150;18.172;2023-12-04T12:06:07;-1.00;;;-128.00;-1.00
77450;BME280;66536;53.150;18.172;2023-12-04T12:08:35;-1.00;;;-128.00;-1.00
77450;BME280;66536;53.150;18.172;2023-12-04T12:11:03;-1.00;;;-128.00;-1.00
77450;BME280;66536;53.150;18.172;2023-12-04T12:13:31;-1.00;;;-128.00;-1.00
77450;BME280;66536;53.150;18.172;2023-12-04T12:15:58;-1.00;;;-128.00;-1.00
77450;BME280;66536;53.150;18.172;2023-12-04T12:18:25;-1.00;;;-128.00;-1.00
77450;BME280;66536;53.150;18.172;2023-12-04T12:20:54;-1.00;;;-128.00;-1.00
77450;BME280;66536;53.150;18.172;2023-12-04T12:23:21;-1.00;;;-128.00;-1.00
77450;BME280;66536;53.150;18.172;2023-12-04T12:25:48;-1.00;;;-128.00;-1.00
77450;BME280;66536;53.150;18.172;2023-12-04T12:28:16;-1.00;;;-128.00;-1.00
77450;BME280;66536;53.150;18.172;2023-12-04T12:30:44;-1.00;;;-128.00;-1.00
77450;BME280;66536;53.150;18.172;2023-12-04T12:33:14;-1.00;;;-128.00;-1.00
77450;BME280;66536;53.150;18.172;2023-12-04T12:35:41;-1.00;;;-128.00;-1.00
77450;BME280;66536;53.150;18.172;2023-12-04T12:38:08;-1.00;;;-128.00;-1.00
77450;BME280;66536;53.150;18.172;2023-12-04T12:40:35;-1.00;;;-128.00;-1.00
77450;BME280;66536;53.150;18.172;2023-12-04T12:43:06;-1.00;;;-128.00;-1.00
77450;BME280;66536;53.150;18.172;2023-12-04T12:45:42;-1.00;;;-128.00;-1.00
77450;BME280;66536;53.150;18.172;2023-12-04T12:48:12;-1.00;;;-128.00;-1.00
77450;BME280;66536;53.150;18.172;2023-12-04T12:50:41;-1.00;;;-128.00;-1.00